createdAt,value
2023-04-22T00:00:17.165Z,121.07
2023-04-22T00:02:45.799Z,153.50
2023-04-22T00:05:17.064Z,143.77
2023-04-22T00:07:47.862Z,157.43
2023-04-22T00:10:20.143Z,144.25
2023-04-22T00:12:48.666Z,141.77
2023-04-22T00:15:20.236Z,162.25
2023-04-22T00:17:48.757Z,173.93
2023-04-22T00:20:17.499Z,166.27
2023-04-22T00:22:45.799Z,163.98
2023-04-22T00:25:14.275Z,158.88
2023-04-22T00:27:45.143Z,151.85
2023-04-22T00:30:14.264Z,162.10
2023-04-22T00:32:42.568Z,163.95
2023-04-22T00:35:11.077Z,183.73
2023-04-22T00:37:39.462Z,204.82
2023-04-22T00:40:09.275Z,195.52
2023-04-22T00:42:38.775Z,179.90
2023-04-22T00:45:14.860Z,168.88
2023-04-22T00:47:43.375Z,165.18
2023-04-22T00:50:12.015Z,172.52
2023-04-22T00:52:40.729Z,181.88
2023-04-22T00:55:10.197Z,183.38
2023-04-22T00:57:39.473Z,176.00
2023-04-22T01:00:11.102Z,170.27
2023-04-22T01:02:40.753Z,174.02
2023-04-22T01:05:10.624Z,170.75
2023-04-22T01:07:38.981Z,158.82
2023-04-22T01:10:08.612Z,171.98
2023-04-22T01:12:37.047Z,167.98
2023-04-22T01:15:06.721Z,177.43
2023-04-22T01:17:36.871Z,177.90
2023-04-22T01:20:06.156Z,195.25
2023-04-22T01:22:40.615Z,205.70
2023-04-22T01:25:11.226Z,213.30
2023-04-22T01:27:40.765Z,236.63
2023-04-22T01:30:11.007Z,245.38
2023-04-22T01:32:41.223Z,220.40
2023-04-22T01:35:10.255Z,210.32
2023-04-22T01:37:39.075Z,206.40
2023-04-22T01:40:10.383Z,198.55
2023-04-22T01:42:40.662Z,231.77
2023-04-22T01:45:10.099Z,210.63
2023-04-22T01:47:38.437Z,196.27
2023-04-22T01:50:07.982Z,227.52
2023-04-22T01:52:38.290Z,206.90
2023-04-22T01:55:07.883Z,196.88
2023-04-22T01:57:36.234Z,201.55
2023-04-22T02:00:08.315Z,187.75
2023-04-22T02:02:37.754Z,186.93
2023-04-22T02:05:07.835Z,197.57
2023-04-22T02:07:37.360Z,200.52
2023-04-22T02:10:06.410Z,219.75
2023-04-22T02:12:34.739Z,264.33
2023-04-22T02:15:03.190Z,212.43
2023-04-22T02:17:34.344Z,203.30
2023-04-22T02:20:02.768Z,198.75
2023-04-22T02:22:31.149Z,238.60
2023-04-22T02:24:59.572Z,295.50
2023-04-22T02:27:27.915Z,335.05
2023-04-22T02:29:56.281Z,419.15
2023-04-22T02:32:24.773Z,466.45
2023-04-22T02:34:54.522Z,398.42
2023-04-22T02:37:23.876Z,543.47
2023-04-22T02:39:52.195Z,669.20
2023-04-22T02:42:20.503Z,822.00
2023-04-22T02:44:48.966Z,652.85
2023-04-22T02:47:17.926Z,1140.53
2023-04-22T02:49:46.199Z,963.28
2023-04-22T02:52:15.941Z,805.17
2023-04-22T02:54:44.280Z,501.85
2023-04-22T02:57:12.605Z,1174.63
2023-04-22T02:59:41.037Z,686.75
2023-04-22T03:02:10.772Z,791.17
2023-04-22T03:04:39.174Z,846.85
2023-04-22T03:07:07.679Z,737.65
2023-04-22T03:09:37.800Z,583.65
2023-04-22T03:12:06.571Z,489.38
2023-04-22T03:14:34.891Z,707.28
2023-04-22T03:17:03.376Z,720.20
2023-04-22T03:19:31.768Z,687.22
2023-04-22T03:22:00.395Z,587.63
2023-04-22T03:24:28.797Z,559.47
2023-04-22T03:26:58.646Z,563.78
2023-04-22T03:29:26.933Z,778.97
2023-04-22T03:31:55.430Z,808.00
2023-04-22T03:34:23.800Z,577.90
2023-04-22T03:36:52.213Z,661.10
2023-04-22T03:39:20.768Z,645.65
2023-04-22T03:41:49.073Z,673.80
2023-04-22T03:44:18.865Z,685.88
2023-04-22T03:46:47.276Z,708.05
2023-04-22T03:49:16.215Z,714.65
2023-04-22T03:51:44.619Z,775.80
2023-04-22T03:54:13.121Z,770.88
2023-04-22T03:56:41.599Z,692.95
2023-04-22T03:59:09.956Z,540.53
2023-04-22T04:01:39.715Z,472.30
2023-04-22T04:04:08.298Z,576.30
2023-04-22T04:06:36.877Z,475.73
2023-04-22T04:09:07.582Z,824.67
2023-04-22T04:11:35.985Z,842.92
2023-04-22T04:14:04.597Z,519.08
2023-04-22T04:16:33.156Z,663.42
2023-04-22T04:19:02.986Z,622.53
2023-04-22T04:21:33.517Z,943.78
2023-04-22T04:24:02.040Z,814.30
2023-04-22T04:26:30.732Z,542.22
2023-04-22T04:28:59.629Z,803.13
2023-04-22T04:31:28.178Z,1039.47
2023-04-22T04:33:57.391Z,848.40
2023-04-22T04:36:29.471Z,808.05
2023-04-22T04:38:57.935Z,732.25
2023-04-22T04:41:28.198Z,573.58
2023-04-22T04:43:56.630Z,937.47
2023-04-22T04:46:25.105Z,764.10
2023-04-22T04:48:54.081Z,802.53
2023-04-22T04:51:26.722Z,710.33
2023-04-22T04:53:55.134Z,739.85
2023-04-22T04:56:23.810Z,543.50
2023-04-22T04:58:52.168Z,489.48
2023-04-22T05:01:20.910Z,737.55
2023-04-22T05:03:49.619Z,436.52
2023-04-22T05:06:18.028Z,716.95
2023-04-22T05:08:47.849Z,612.08
2023-04-22T05:11:16.232Z,449.55
2023-04-22T05:13:44.542Z,563.53
2023-04-22T05:16:13.275Z,579.25
2023-04-22T05:18:41.571Z,631.20
2023-04-22T05:21:09.906Z,589.40
2023-04-22T05:23:38.267Z,809.17
2023-04-22T05:26:07.959Z,602.22
2023-04-22T05:28:36.469Z,784.47
2023-04-22T05:31:04.873Z,413.55
2023-04-22T05:33:33.239Z,352.67
2023-04-22T05:36:01.558Z,480.17
2023-04-22T05:38:30.017Z,358.48
2023-04-22T05:40:58.374Z,390.80
2023-04-22T05:43:28.064Z,456.35
2023-04-22T05:45:56.593Z,323.50
2023-04-22T05:48:24.933Z,299.20
2023-04-22T05:50:55.720Z,285.05
2023-04-22T05:53:24.315Z,317.33
2023-04-22T05:55:52.702Z,267.70
2023-04-22T05:58:21.112Z,243.43
2023-04-22T06:00:50.943Z,241.13
2023-04-22T06:03:19.775Z,259.23
2023-04-22T06:05:48.562Z,239.45
2023-04-22T06:08:17.001Z,232.45
2023-04-22T06:10:45.784Z,221.23
2023-04-22T06:13:14.150Z,226.57
2023-04-22T06:15:42.626Z,210.65
2023-04-22T06:18:12.399Z,207.73
2023-04-22T06:20:41.004Z,199.52
2023-04-22T06:23:09.273Z,201.57
2023-04-22T06:25:37.911Z,204.77
2023-04-22T06:28:06.553Z,207.55
2023-04-22T06:30:35.165Z,184.25
2023-04-22T06:33:03.839Z,181.07
2023-04-22T06:35:34.044Z,170.15
2023-04-22T06:38:02.741Z,178.27
2023-04-22T06:40:31.378Z,165.73
2023-04-22T06:43:00.134Z,168.43
2023-04-22T06:45:28.764Z,171.35
2023-04-22T06:47:57.577Z,160.40
2023-04-22T06:50:26.344Z,169.02
2023-04-22T06:52:56.397Z,165.57
2023-04-22T06:55:25.011Z,155.50
2023-04-22T06:57:53.476Z,237.30
2023-04-22T07:00:21.844Z,232.98
2023-04-22T07:02:50.584Z,241.23
2023-04-22T07:05:19.522Z,231.63
2023-04-22T07:07:48.407Z,205.30
2023-04-22T07:10:18.359Z,191.43
2023-04-22T07:12:47.025Z,202.43
2023-04-22T07:15:15.310Z,171.55
2023-04-22T07:17:44.245Z,152.70
2023-04-22T07:20:13.385Z,137.68
2023-04-22T07:22:41.770Z,155.52
2023-04-22T07:25:11.099Z,148.27
2023-04-22T07:27:40.930Z,136.85
2023-04-22T07:30:10.229Z,140.60
2023-04-22T07:32:38.840Z,125.32
2023-04-22T07:35:08.012Z,132.90
2023-04-22T07:37:36.567Z,116.10
2023-04-22T07:40:05.979Z,112.18
2023-04-22T07:42:34.638Z,104.95
2023-04-22T07:45:04.570Z,87.97
2023-04-22T07:47:33.261Z,86.55
2023-04-22T07:50:02.947Z,101.18
2023-04-22T07:52:31.614Z,96.10
2023-04-22T07:55:00.191Z,119.90
2023-04-22T07:57:28.840Z,111.85
2023-04-22T07:59:58.509Z,84.32
2023-04-22T08:02:28.525Z,97.22
2023-04-22T08:04:57.240Z,92.93
2023-04-22T08:07:32.994Z,105.35
2023-04-22T08:10:02.357Z,109.72
2023-04-22T08:12:31.025Z,107.43
2023-04-22T08:14:59.703Z,101.40
2023-04-22T08:17:29.733Z,94.22
2023-04-22T08:19:58.411Z,89.15
2023-04-22T08:22:27.604Z,69.60
2023-04-22T08:24:55.920Z,69.03
2023-04-22T08:27:24.277Z,60.33
2023-04-22T08:29:52.884Z,61.58
2023-04-22T08:32:22.502Z,47.42
2023-04-22T08:34:54.251Z,47.17
2023-04-22T08:37:27.077Z,43.22
2023-04-22T08:39:55.652Z,43.22
2023-04-22T08:42:24.463Z,43.17
2023-04-22T08:44:53.841Z,38.00
2023-04-22T08:47:22.815Z,34.50
2023-04-22T08:49:54.872Z,33.58
2023-04-22T08:52:23.354Z,30.52
2023-04-22T08:54:52.656Z,26.90
2023-04-22T08:57:21.561Z,25.38
2023-04-22T08:59:51.386Z,24.15
2023-04-22T09:02:22.303Z,25.65
2023-04-22T09:04:55.777Z,25.25
2023-04-22T09:07:26.000Z,27.38
2023-04-22T09:09:54.666Z,25.80
2023-04-22T09:12:23.318Z,23.33
2023-04-22T09:14:52.263Z,26.95
2023-04-22T09:17:31.760Z,23.70
2023-04-22T09:20:02.114Z,23.55
2023-04-22T09:22:38.102Z,24.48
2023-04-22T09:25:07.498Z,23.83
2023-04-22T09:27:37.185Z,23.77
2023-04-22T09:30:10.812Z,28.17
2023-04-22T09:32:40.810Z,27.33
2023-04-22T09:35:10.984Z,27.77
2023-04-22T09:37:48.953Z,29.45
2023-04-22T09:40:20.175Z,35.63
2023-04-22T09:42:54.640Z,42.75
2023-04-22T09:45:33.758Z,40.38
2023-04-22T09:48:03.117Z,44.72
2023-04-22T09:50:32.904Z,54.63
2023-04-22T09:53:02.644Z,65.95
2023-04-22T09:55:33.082Z,65.93
2023-04-22T09:58:06.393Z,66.43
2023-04-22T10:00:35.016Z,56.60
2023-04-22T10:03:04.037Z,52.80
2023-04-22T10:05:37.868Z,62.42
2023-04-22T10:08:11.118Z,48.55
2023-04-22T10:10:40.200Z,46.17
2023-04-22T10:13:08.832Z,39.80
2023-04-22T10:15:38.502Z,21.38
2023-04-22T10:18:08.676Z,28.75
2023-04-22T10:20:39.783Z,21.90
2023-04-22T10:23:13.734Z,17.67
2023-04-22T10:25:42.864Z,27.02
2023-04-22T10:28:12.164Z,30.27
2023-04-22T10:30:42.607Z,26.75
2023-04-22T10:33:31.819Z,22.10
2023-04-22T10:36:18.304Z,24.40
2023-04-22T10:39:05.213Z,21.92
2023-04-22T10:41:36.678Z,21.67
2023-04-22T10:44:08.257Z,20.38
2023-04-22T10:46:55.225Z,22.13
2023-04-22T10:49:24.705Z,21.60
2023-04-22T10:51:55.654Z,27.23
2023-04-22T10:54:42.555Z,25.98
2023-04-22T10:57:14.580Z,27.90
2023-04-22T10:59:44.482Z,28.02
2023-04-22T11:02:13.919Z,30.42
2023-04-22T11:04:42.968Z,33.53
2023-04-22T11:07:18.157Z,32.30
2023-04-22T11:09:47.556Z,25.70
2023-04-22T11:12:34.764Z,30.35
2023-04-22T11:15:07.006Z,27.88
2023-04-22T11:17:35.781Z,24.98
2023-04-22T11:20:04.910Z,26.48
2023-04-22T11:22:37.187Z,29.05
2023-04-22T11:25:06.330Z,29.73
2023-04-22T11:27:34.979Z,32.33
2023-04-22T11:30:05.609Z,35.10
2023-04-22T11:32:34.242Z,49.30
2023-04-22T11:35:05.264Z,48.70
2023-04-22T11:37:41.363Z,47.83
2023-04-22T11:40:27.310Z,45.05
2023-04-22T11:42:57.670Z,39.65
2023-04-22T11:45:28.617Z,48.25
2023-04-22T11:47:57.581Z,45.28
2023-04-22T11:50:27.644Z,46.80
2023-04-22T11:52:57.794Z,45.17
2023-04-22T11:55:30.376Z,42.90
2023-04-22T11:58:00.265Z,58.75
2023-04-22T12:00:33.979Z,33.60
2023-04-22T12:03:03.559Z,31.25
2023-04-22T12:05:40.566Z,32.70
2023-04-22T12:08:10.866Z,33.10
2023-04-22T12:10:46.769Z,34.22
2023-04-22T12:13:22.413Z,39.17
2023-04-22T12:15:55.818Z,46.75
2023-04-22T12:18:30.818Z,46.17
2023-04-22T12:21:02.349Z,42.40
2023-04-22T12:23:31.670Z,38.38
2023-04-22T12:25:59.955Z,33.63
2023-04-22T12:28:28.414Z,31.90
2023-04-22T12:30:58.103Z,37.95
2023-04-22T12:33:26.564Z,36.95
2023-04-22T12:35:54.919Z,39.45
2023-04-22T12:38:23.247Z,34.63
2023-04-22T12:40:52.386Z,37.65
2023-04-22T12:43:22.628Z,34.22
2023-04-22T12:45:51.848Z,37.30
2023-04-22T12:48:21.833Z,37.58
2023-04-22T12:50:50.123Z,37.33
2023-04-22T12:53:18.471Z,33.40
2023-04-22T12:55:46.883Z,34.70
2023-04-22T12:58:15.778Z,30.52
2023-04-22T13:00:44.148Z,31.60
2023-04-22T13:03:12.846Z,28.60
2023-04-22T13:05:42.669Z,24.30
2023-04-22T13:08:11.026Z,23.92
2023-04-22T13:10:39.366Z,21.63
2023-04-22T13:15:39.947Z,24.02
2023-04-22T13:18:08.359Z,25.20
2023-04-22T13:20:37.162Z,26.10
2023-04-22T13:23:08.218Z,25.67
2023-04-22T13:25:36.713Z,27.95
2023-04-22T13:28:05.063Z,19.45
2023-04-22T13:30:34.349Z,19.92
2023-04-22T13:33:02.773Z,15.85
2023-04-22T13:35:31.744Z,14.70
2023-04-22T13:38:00.174Z,14.75
2023-04-22T13:40:30.045Z,12.52
2023-04-22T13:42:58.445Z,17.75
2023-04-22T13:45:26.966Z,12.43
2023-04-22T13:47:55.584Z,13.57
2023-04-22T13:50:26.152Z,13.20
2023-04-22T13:52:54.949Z,15.35
2023-04-22T13:55:23.363Z,14.93
2023-04-22T13:57:54.249Z,12.40
2023-04-22T14:00:22.621Z,15.70
2023-04-22T14:02:51.358Z,14.98
2023-04-22T14:05:21.802Z,15.68
2023-04-22T14:07:50.195Z,15.88
2023-04-22T14:10:20.458Z,15.73
2023-04-22T14:12:50.233Z,13.63
2023-04-22T14:15:20.141Z,14.57
2023-04-22T14:17:51.190Z,13.80
2023-04-22T14:20:25.085Z,15.93
2023-04-22T14:22:53.616Z,14.63
2023-04-22T14:25:22.116Z,15.15
2023-04-22T14:27:50.537Z,16.17
2023-04-22T14:30:21.932Z,13.57
2023-04-22T14:32:52.996Z,14.57
2023-04-22T14:35:21.386Z,17.98
2023-04-22T14:37:49.757Z,17.63
2023-04-22T14:40:20.019Z,14.55
2023-04-22T14:42:48.360Z,14.05
2023-04-22T14:45:16.831Z,13.90
2023-04-22T14:47:46.659Z,15.30
2023-04-22T14:50:15.355Z,15.15
2023-04-22T14:52:44.123Z,17.17
2023-04-22T14:55:22.363Z,13.82
2023-04-22T14:57:56.755Z,14.80
2023-04-22T15:00:25.708Z,15.68
2023-04-22T15:02:56.153Z,12.90
2023-04-22T15:05:24.766Z,12.73
2023-04-22T15:07:53.228Z,14.85
2023-04-22T15:10:21.935Z,13.85
2023-04-22T15:12:50.541Z,13.30
2023-04-22T15:15:19.174Z,12.23
2023-04-22T15:17:50.069Z,12.52
2023-04-22T15:20:20.058Z,13.55
2023-04-22T15:22:48.658Z,14.73
2023-04-22T15:25:18.304Z,15.10
2023-04-22T15:27:47.543Z,14.38
2023-04-22T15:30:16.256Z,15.90
2023-04-22T15:32:44.830Z,14.07
2023-04-22T15:35:14.341Z,14.00
2023-04-22T15:37:45.961Z,15.23
2023-04-22T15:40:14.348Z,16.25
2023-04-22T15:42:42.669Z,15.68
2023-04-22T15:45:11.769Z,15.70
2023-04-22T15:47:42.017Z,16.83
2023-04-22T15:50:11.302Z,14.82
2023-04-22T15:52:40.694Z,13.32
2023-04-22T15:55:11.091Z,16.38
2023-04-22T15:57:39.494Z,14.13
2023-04-22T16:00:13.513Z,14.27
2023-04-22T16:02:43.206Z,14.77
2023-04-22T16:05:12.616Z,14.15
2023-04-22T16:07:41.412Z,16.10
2023-04-22T16:10:12.320Z,14.77
2023-04-22T16:12:41.008Z,14.52
2023-04-22T16:15:10.464Z,15.43
2023-04-22T16:17:39.246Z,13.00
2023-04-22T16:20:08.627Z,14.40
2023-04-22T16:22:37.193Z,13.38
2023-04-22T16:25:06.486Z,14.02
2023-04-22T16:27:36.216Z,12.85
2023-04-22T16:30:05.204Z,14.50
2023-04-22T16:32:33.665Z,13.07
2023-04-22T16:35:02.055Z,12.40
2023-04-22T16:37:32.677Z,12.60
2023-04-22T16:40:01.164Z,12.90
2023-04-22T16:42:32.120Z,12.88
2023-04-22T16:45:01.956Z,12.07
2023-04-22T16:47:30.520Z,13.85
2023-04-22T16:49:58.935Z,13.90
2023-04-22T16:52:27.272Z,15.30
2023-04-22T16:54:55.684Z,13.95
2023-04-22T16:57:24.267Z,12.82
2023-04-22T16:59:52.603Z,13.52
2023-04-22T17:02:22.826Z,13.27
2023-04-22T17:04:51.253Z,13.70
2023-04-22T17:07:19.845Z,13.98
2023-04-22T17:09:48.999Z,15.02
2023-04-22T17:12:17.594Z,15.35
2023-04-22T17:14:45.999Z,16.00
2023-04-22T17:17:14.844Z,14.98
2023-04-22T17:19:44.827Z,16.40
2023-04-22T17:22:13.447Z,14.32
2023-04-22T17:24:42.909Z,15.10
2023-04-22T17:27:14.754Z,15.68
2023-04-22T17:29:46.586Z,14.20
2023-04-22T17:32:15.013Z,15.55
2023-04-22T17:34:44.764Z,15.30
2023-04-22T17:37:13.094Z,14.02
2023-04-22T17:39:42.361Z,16.17
2023-04-22T17:42:10.726Z,15.05
2023-04-22T17:44:39.373Z,15.52
2023-04-22T17:47:08.031Z,14.30
2023-04-22T17:49:36.606Z,15.50
2023-04-22T17:52:06.637Z,15.20
2023-04-22T17:54:35.077Z,18.45
2023-04-22T17:57:03.751Z,15.23
2023-04-22T17:59:32.131Z,15.77
2023-04-22T18:02:01.682Z,16.13
2023-04-22T18:04:30.119Z,17.42
2023-04-22T18:06:58.521Z,16.42
2023-04-22T18:09:28.347Z,16.55
2023-04-22T18:11:58.638Z,16.50
2023-04-22T18:14:27.646Z,17.98
2023-04-22T18:16:56.087Z,17.80
2023-04-22T18:19:24.651Z,22.48
2023-04-22T18:22:00.066Z,18.30
2023-04-22T18:24:30.754Z,20.13
2023-04-22T18:26:59.416Z,19.98
2023-04-22T18:29:27.981Z,18.38
2023-04-22T18:31:56.925Z,20.45
2023-04-22T18:34:25.549Z,20.33
2023-04-22T18:36:53.938Z,22.30
2023-04-22T18:39:22.532Z,23.58
2023-04-22T18:41:54.631Z,22.05
2023-04-22T18:44:23.009Z,20.48
2023-04-22T18:46:53.045Z,23.42
2023-04-22T18:49:21.716Z,23.50
2023-04-22T18:51:52.306Z,22.60
2023-04-22T18:54:20.764Z,25.25
2023-04-22T18:56:51.592Z,26.42
2023-04-22T18:59:21.934Z,28.15
2023-04-22T19:01:51.489Z,30.00
2023-04-22T19:04:20.405Z,26.13
2023-04-22T19:06:48.952Z,31.20
2023-04-22T19:09:17.464Z,30.35
2023-04-22T19:11:45.942Z,33.58
2023-04-22T19:14:14.832Z,33.65
2023-04-22T19:16:48.627Z,34.80
2023-04-22T19:19:17.103Z,39.08
2023-04-22T19:21:45.970Z,43.38
2023-04-22T19:24:16.225Z,43.35
2023-04-22T19:26:46.162Z,44.25
2023-04-22T19:29:17.173Z,48.35
2023-04-22T19:31:46.330Z,50.22
2023-04-22T19:34:16.490Z,53.85
2023-04-22T19:36:45.071Z,51.17
2023-04-22T19:39:13.647Z,48.58
2023-04-22T19:41:43.059Z,49.17
2023-04-22T19:44:11.661Z,46.42
2023-04-22T19:46:43.540Z,47.60
2023-04-22T19:49:12.423Z,46.17
2023-04-22T19:51:43.772Z,43.40
2023-04-22T19:54:12.977Z,45.05
2023-04-22T19:56:41.994Z,45.08
2023-04-22T19:59:10.937Z,46.65
2023-04-22T20:01:44.453Z,42.13
2023-04-22T20:04:13.536Z,43.72
2023-04-22T20:06:45.863Z,49.28
2023-04-22T20:09:15.613Z,43.78
2023-04-22T20:11:44.745Z,43.30
2023-04-22T20:14:14.777Z,46.22
2023-04-22T20:16:44.813Z,43.42
2023-04-22T20:19:13.969Z,44.25
2023-04-22T20:21:45.021Z,43.92
2023-04-22T20:24:19.171Z,44.28
2023-04-22T20:26:49.605Z,46.05
2023-04-22T20:29:19.032Z,46.45
2023-04-22T20:31:47.712Z,44.80
2023-04-22T20:34:16.504Z,49.00
2023-04-22T20:36:46.593Z,46.08
2023-04-22T20:39:15.186Z,47.42
2023-04-22T20:41:44.399Z,47.30
2023-04-22T20:44:14.248Z,46.97
2023-04-22T20:46:42.850Z,46.90
2023-04-22T20:49:11.902Z,48.78
2023-04-22T20:51:40.636Z,48.85
2023-04-22T20:54:21.719Z,44.67
2023-04-22T20:56:57.915Z,45.78
2023-04-22T20:59:26.563Z,47.50
2023-04-22T21:01:55.635Z,48.70
2023-04-22T21:04:25.612Z,48.22
2023-04-22T21:06:54.757Z,50.03
2023-04-22T21:09:28.209Z,51.08
2023-04-22T21:11:57.068Z,50.83
2023-04-22T21:14:26.479Z,48.90
2023-04-22T21:16:57.614Z,52.03
2023-04-22T21:19:28.979Z,47.08
2023-04-22T21:22:00.760Z,46.25
2023-04-22T21:24:31.464Z,46.67
2023-04-22T21:27:01.440Z,54.00
2023-04-22T21:29:30.269Z,49.40
2023-04-22T21:32:08.747Z,50.22
2023-04-22T21:34:38.880Z,49.40
2023-04-22T21:37:08.119Z,47.65
2023-04-22T21:39:38.155Z,50.38
2023-04-22T21:42:08.318Z,53.08
2023-04-22T21:44:38.124Z,50.22
2023-04-22T21:47:07.256Z,49.17
2023-04-22T21:49:35.920Z,48.55
2023-04-22T21:52:04.600Z,50.72
2023-04-22T21:54:33.320Z,45.97
2023-04-22T21:57:03.342Z,46.53
2023-04-22T21:59:31.887Z,49.03
2023-04-22T22:02:00.659Z,48.35
2023-04-22T22:04:29.377Z,47.28
2023-04-22T22:06:58.173Z,46.40
2023-04-22T22:09:27.084Z,45.85
2023-04-22T22:11:55.733Z,44.80
2023-04-22T22:14:25.717Z,46.05
2023-04-22T22:16:55.001Z,49.83
2023-04-22T22:19:27.697Z,45.47
2023-04-22T22:21:56.284Z,48.20
2023-04-22T22:24:24.918Z,45.30
2023-04-22T22:26:53.806Z,44.65
2023-04-22T22:29:22.470Z,46.72
2023-04-22T22:31:52.574Z,61.85
2023-04-22T22:34:21.307Z,108.60
2023-04-22T22:36:49.862Z,133.10
2023-04-22T22:39:18.560Z,142.27
2023-04-22T22:41:47.293Z,146.73
2023-04-22T22:44:15.881Z,141.68
2023-04-22T22:46:44.565Z,143.40
2023-04-22T22:49:14.446Z,134.50
2023-04-22T22:51:43.081Z,122.20
2023-04-22T22:54:11.842Z,129.48
2023-04-22T22:56:40.452Z,125.80
2023-04-22T22:59:09.847Z,127.50
2023-04-22T23:01:38.655Z,123.60
2023-04-22T23:04:07.713Z,128.55
2023-04-22T23:06:37.732Z,138.93
2023-04-22T23:09:07.999Z,138.35
2023-04-22T23:11:36.566Z,161.80
2023-04-22T23:14:05.163Z,191.52
2023-04-22T23:16:35.224Z,214.35
2023-04-22T23:19:03.860Z,232.50
2023-04-22T23:21:33.269Z,232.98
2023-04-22T23:24:07.688Z,231.60
2023-04-22T23:26:36.891Z,232.07
2023-04-22T23:29:05.662Z,230.40
2023-04-22T23:31:35.013Z,225.88
2023-04-22T23:34:04.851Z,229.68
2023-04-22T23:36:34.111Z,232.73
2023-04-22T23:39:02.880Z,220.02
2023-04-22T23:41:32.856Z,229.52
2023-04-22T23:44:01.447Z,225.80
2023-04-22T23:46:30.130Z,228.93
2023-04-22T23:48:59.020Z,211.82
2023-04-22T23:51:27.681Z,212.23
2023-04-22T23:53:56.360Z,210.50
2023-04-22T23:56:25.201Z,210.25
2023-04-22T23:58:55.518Z,222.35
